Aviation Digital Data Service (ADDS)

Output produced by METARs form (1810 UTC 18 August 2018)
found at http://aviationweather.gov/adds/metars/
 
KLCH 181753Z 24008KT 10SM FEW036 FEW043 SCT050 34/24 A3001 RMK AO2 SLP171 T03440239 10344 20267 58015